Time;durP1;ratioP1;P1;durP2;ratioP2;P2;SDS_P1;SDS_P2;PMS_P1;PMS_P2;Temp;Humidity;BMP_temperature;BMP_pressure;BME280_temperature;BME280_humidity;BME280_pressure;Samples;Min_cycle;Max_cycle;Signal;HPM_P1;HPM_P2
2023/04/24 00:00:52;;;;;;;;;;;;;;;12.26;89.16;99621.16;5590629;31;35504;-70
2023/04/24 00:03:59;;;;;;;;;;;;;;;12.23;87.27;99618.06;5590594;31;34248;-70
2023/04/24 00:07:02;;;;;;;;;;;;;;;12.17;87.57;99620.50;5590566;31;34189;-70
2023/04/24 00:10:05;;;;;;;;;;;;;;;12.15;88.61;99614.53;5590493;31;34871;-70
2023/04/24 00:13:10;;;;;;;;;;;;;;;12.20;88.12;99609.44;5590382;31;34271;-70
2023/04/24 00:16:12;;;;;;;;;;;;;;;12.25;87.18;99608.88;5590328;31;34474;-70
2023/04/24 00:19:15;;;;;;;;;;;;;;;12.29;86.60;99612.78;5590683;31;34138;-70
2023/04/24 00:22:17;;;;;;;;;;;;;;;12.37;86.24;99614.44;5590382;31;34367;-71
2023/04/24 00:25:21;;;;;;;;;;;;;;;12.44;86.96;99618.78;5589169;31;34108;-69
2023/04/24 00:28:24;;;;;;;;;;;;;;;12.47;87.95;99622.88;5590156;31;34125;-69
2023/04/24 00:31:26;;;;;;;;;;;;;;;12.52;88.51;99618.63;5590242;31;34245;-70
2023/04/24 00:34:29;;;;;;;;;;;;;;;12.62;86.85;99619.06;5576464;31;34119;-70
2023/04/24 00:37:31;;;;;;;;;;;;;;;12.73;85.54;99609.66;5590163;31;34857;-70
2023/04/24 00:40:34;;;;;;;;;;;;;;;12.78;86.03;99620.53;5590541;31;34203;-70
2023/04/24 00:43:36;;;;;;;;;;;;;;;12.81;85.06;99601.53;5590212;31;34217;-70
2023/04/24 00:46:39;;;;;;;;;;;;;;;12.91;84.84;99603.78;5590094;31;34458;-70
2023/04/24 00:49:42;;;;;;;;;;;;;;;13.03;85.34;99595.00;5590025;31;34144;-70
2023/04/24 00:52:45;;;;;;;;;;;;;;;13.07;83.51;99598.88;5590272;31;34176;-69
2023/04/24 00:55:47;;;;;;;;;;;;;;;12.99;80.65;99596.44;5589994;31;34825;-70
2023/04/24 00:58:50;;;;;;;;;;;;;;;13.06;79.57;99604.44;5576219;31;34814;-68
2023/04/24 01:01:53;;;;;;;;;;;;;;;12.92;78.92;99594.78;5590262;31;34236;-71
2023/04/24 01:04:56;;;;;;;;;;;;;;;13.18;75.04;99591.34;5590139;31;34987;-70
2023/04/24 01:07:59;;;;;;;;;;;;;;;13.20;71.89;99595.47;5590038;31;34144;-71
2023/04/24 01:11:03;;;;;;;;;;;;;;;13.28;74.06;99600.59;5589913;31;34125;-71
2023/04/24 01:14:06;;;;;;;;;;;;;;;13.16;74.32;99590.75;5589921;31;34330;-70
2023/04/24 01:17:09;;;;;;;;;;;;;;;13.05;75.66;99603.63;5589828;31;34444;-70
2023/04/24 01:20:11;;;;;;;;;;;;;;;13.23;75.81;99602.22;5589826;31;34258;-70
2023/04/24 01:23:16;;;;;;;;;;;;;;;13.27;69.55;99601.59;5576725;31;34209;-71
2023/04/24 01:26:19;;;;;;;;;;;;;;;13.35;69.46;99601.44;5589789;31;34317;-70
2023/04/24 01:29:22;;;;;;;;;;;;;;;13.47;67.83;99591.78;5575986;31;34099;-71
2023/04/24 01:32:25;;;;;;;;;;;;;;;13.52;66.71;99585.00;5589692;31;34208;-71
2023/04/24 01:35:28;;;;;;;;;;;;;;;13.50;67.83;99577.25;5589272;31;34235;-70
2023/04/24 01:38:31;;;;;;;;;;;;;;;13.58;71.14;99585.03;5589766;31;32826;-70
2023/04/24 01:41:34;;;;;;;;;;;;;;;13.53;70.04;99584.81;5589760;31;32326;-71
2023/04/24 01:44:36;;;;;;;;;;;;;;;13.48;67.75;99580.09;5589594;31;34212;-71
2023/04/24 01:47:40;;;;;;;;;;;;;;;13.53;66.95;99581.31;5589542;31;35803;-71
2023/04/24 01:50:42;;;;;;;;;;;;;;;13.55;67.81;99577.44;5589410;31;34863;-71
2023/04/24 01:53:47;;;;;;;;;;;;;;;13.47;66.64;99573.13;5576000;31;34047;-71
2023/04/24 01:56:51;;;;;;;;;;;;;;;13.44;67.42;99564.72;5589515;31;34263;-73
2023/04/24 01:59:56;;;;;;;;;;;;;;;12.90;90.12;99554.22;5589419;31;34881;-72
2023/04/24 02:03:03;;;;;;;;;;;;;;;12.08;100.00;99539.25;5589461;31;34926;-72
2023/04/24 02:06:06;;;;;;;;;;;;;;;11.41;100.00;99525.75;5589368;31;34187;-71
2023/04/24 02:09:08;;;;;;;;;;;;;;;11.05;100.00;99530.38;5589248;31;34237;-71
2023/04/24 02:12:11;;;;;;;;;;;;;;;10.85;100.00;99535.50;5589314;31;34959;-71
2023/04/24 02:15:14;;;;;;;;;;;;;;;10.58;100.00;99533.59;5589300;31;34202;-71
2023/04/24 02:18:17;;;;;;;;;;;;;;;10.57;100.00;99516.03;5589490;31;35108;-71
2023/04/24 02:21:19;;;;;;;;;;;;;;;10.74;100.00;99518.28;5589453;31;34738;-71
2023/04/24 02:24:22;;;;;;;;;;;;;;;10.62;100.00;99521.59;5589249;31;34882;-71
2023/04/24 02:27:25;;;;;;;;;;;;;;;10.51;100.00;99507.00;5588976;31;34919;-71
2023/04/24 02:30:27;;;;;;;;;;;;;;;10.52;100.00;99507.81;5588870;31;34144;-71
2023/04/24 02:33:30;;;;;;;;;;;;;;;10.52;100.00;99505.16;5589010;31;34376;-71
2023/04/24 02:36:32;;;;;;;;;;;;;;;10.50;100.00;99504.56;5588846;31;34774;-71
2023/04/24 02:39:35;;;;;;;;;;;;;;;10.50;100.00;99505.37;5588770;31;34192;-71
2023/04/24 02:42:37;;;;;;;;;;;;;;;10.58;100.00;99507.06;5588818;31;34797;-71
2023/04/24 02:45:40;;;;;;;;;;;;;;;10.60;100.00;99508.50;5588979;31;34194;-70
2023/04/24 02:48:42;;;;;;;;;;;;;;;10.57;100.00;99500.94;5590142;31;35071;-71
2023/04/24 02:51:45;;;;;;;;;;;;;;;10.57;100.00;99500.13;5577488;31;34864;-71
2023/04/24 02:54:47;;;;;;;;;;;;;;;10.62;100.00;99503.03;5591131;31;34246;-71
2023/04/24 02:57:50;;;;;;;;;;;;;;;10.57;100.00;99495.66;5591190;31;34269;-71
2023/04/24 03:00:53;;;;;;;;;;;;;;;10.50;100.00;99500.06;5591180;31;34155;-71
2023/04/24 03:03:56;;;;;;;;;;;;;;;10.53;100.00;99507.66;5591160;31;34086;-71
2023/04/24 03:06:58;;;;;;;;;;;;;;;10.56;100.00;99496.66;5591075;31;34294;-72
2023/04/24 03:10:01;;;;;;;;;;;;;;;10.60;100.00;99499.75;5590958;31;34252;-71
2023/04/24 03:13:04;;;;;;;;;;;;;;;10.63;100.00;99488.78;5591131;31;34321;-72
2023/04/24 03:16:09;;;;;;;;;;;;;;;10.65;100.00;99492.06;5591103;31;34270;-70
2023/04/24 03:19:12;;;;;;;;;;;;;;;10.63;100.00;99478.16;5590847;31;35021;-71
2023/04/24 03:22:16;;;;;;;;;;;;;;;10.65;100.00;99473.50;5591001;31;34243;-71
2023/04/24 03:25:19;;;;;;;;;;;;;;;10.70;100.00;99492.28;5590978;31;34884;-71
2023/04/24 03:28:22;;;;;;;;;;;;;;;10.68;100.00;99489.84;5590845;31;34888;-71
2023/04/24 03:31:25;;;;;;;;;;;;;;;10.65;100.00;99492.06;5591225;31;34302;-71
2023/04/24 03:34:28;;;;;;;;;;;;;;;10.73;100.00;99484.78;5590858;31;34795;-71
2023/04/24 03:37:30;;;;;;;;;;;;;;;10.78;100.00;99486.88;5590824;31;34806;-70
2023/04/24 03:40:35;;;;;;;;;;;;;;;10.75;100.00;99489.87;5590873;31;34094;-70
2023/04/24 03:43:39;;;;;;;;;;;;;;;10.85;100.00;99493.88;5591196;31;34822;-70
2023/04/24 03:46:42;;;;;;;;;;;;;;;10.85;100.00;99491.22;5590732;31;34858;-70
2023/04/24 03:49:44;;;;;;;;;;;;;;;10.87;100.00;99486.53;5590437;31;34418;-70
2023/04/24 03:52:47;;;;;;;;;;;;;;;10.79;100.00;99480.56;5590584;31;34826;-70
2023/04/24 03:55:52;;;;;;;;;;;;;;;10.72;100.00;99472.53;5577081;31;32423;-71
2023/04/24 03:58:55;;;;;;;;;;;;;;;10.74;100.00;99475.81;5576760;31;34504;-71
2023/04/24 04:01:57;;;;;;;;;;;;;;;10.72;100.00;99487.62;5590528;31;34220;-71
2023/04/24 04:05:00;;;;;;;;;;;;;;;10.74;100.00;99486.44;5590440;31;34829;-70
2023/04/24 04:08:02;;;;;;;;;;;;;;;10.73;100.00;99492.75;5590457;31;34802;-71
2023/04/24 04:11:05;;;;;;;;;;;;;;;10.80;100.00;99488.31;5590453;31;34253;-70
2023/04/24 04:14:08;;;;;;;;;;;;;;;10.93;100.00;99494.75;5590669;31;34138;-71
2023/04/24 04:17:10;;;;;;;;;;;;;;;10.96;100.00;99481.91;5590450;31;34044;-70
2023/04/24 04:20:13;;;;;;;;;;;;;;;11.07;100.00;99481.41;5590422;31;35017;-70
2023/04/24 04:23:16;;;;;;;;;;;;;;;11.16;100.00;99485.53;5590699;31;34240;-71
2023/04/24 04:26:20;;;;;;;;;;;;;;;11.31;100.00;99490.75;5590567;31;34215;-71
2023/04/24 04:29:25;;;;;;;;;;;;;;;11.44;100.00;99497.97;5590264;31;34125;-71
2023/04/24 04:32:28;;;;;;;;;;;;;;;11.60;100.00;99493.19;5576614;31;34829;-71
2023/04/24 04:35:31;;;;;;;;;;;;;;;11.56;100.00;99497.25;5590257;31;34284;-71
2023/04/24 04:38:34;;;;;;;;;;;;;;;11.55;100.00;99497.44;5590188;31;34242;-71
2023/04/24 04:41:40;;;;;;;;;;;;;;;11.63;100.00;99489.31;5590555;31;34821;-70
2023/04/24 04:44:44;;;;;;;;;;;;;;;11.75;100.00;99485.94;5590320;31;34179;-70
2023/04/24 04:47:48;;;;;;;;;;;;;;;11.93;100.00;99481.94;5589958;31;34078;-71
2023/04/24 04:50:51;;;;;;;;;;;;;;;12.04;100.00;99476.06;5589727;31;34354;-70
2023/04/24 04:53:56;;;;;;;;;;;;;;;12.09;100.00;99485.06;5590094;31;34876;-70
2023/04/24 04:57:00;;;;;;;;;;;;;;;12.13;100.00;99488.16;5589932;31;34188;-70
2023/04/24 05:00:07;;;;;;;;;;;;;;;12.14;100.00;99479.97;5590399;31;34759;-71
2023/04/24 05:03:10;;;;;;;;;;;;;;;12.20;100.00;99473.84;5590093;31;34208;-70
2023/04/24 05:06:23;;;;;;;;;;;;;;;12.34;100.00;99471.22;5590104;31;34982;-69
2023/04/24 05:09:27;;;;;;;;;;;;;;;12.44;100.00;99475.13;5589760;31;34251;-69
2023/04/24 05:12:30;;;;;;;;;;;;;;;12.47;100.00;99477.41;5589583;31;34104;-70
2023/04/24 05:15:34;;;;;;;;;;;;;;;12.50;100.00;99481.47;5589931;31;34173;-71
2023/04/24 05:18:37;;;;;;;;;;;;;;;12.70;100.00;99468.22;5575988;31;34742;-70
2023/04/24 05:21:40;;;;;;;;;;;;;;;12.83;100.00;99474.34;5587931;31;34406;-70
2023/04/24 05:24:43;;;;;;;;;;;;;;;12.97;100.00;99473.31;5589867;31;34174;-71
2023/04/24 05:27:49;;;;;;;;;;;;;;;13.16;100.00;99473.56;5589651;31;34279;-71
2023/04/24 05:30:51;;;;;;;;;;;;;;;13.31;100.00;99484.84;5589570;31;34157;-70
2023/04/24 05:33:54;;;;;;;;;;;;;;;13.51;100.00;99479.47;5576180;31;34065;-70
2023/04/24 05:36:57;;;;;;;;;;;;;;;13.88;100.00;99471.56;5575541;31;34353;-70
2023/04/24 05:40:00;;;;;;;;;;;;;;;13.89;100.00;99475.06;5588916;31;34464;-71
2023/04/24 05:43:04;;;;;;;;;;;;;;;13.87;100.00;99479.75;5588834;31;34994;-73
2023/04/24 05:46:06;;;;;;;;;;;;;;;13.91;100.00;99487.12;5589022;31;34431;-72
2023/04/24 05:49:09;;;;;;;;;;;;;;;13.77;100.00;99490.03;5587807;31;35086;-71
2023/04/24 05:52:12;;;;;;;;;;;;;;;13.40;100.00;99484.41;5573779;31;34832;-72
2023/04/24 05:55:18;;;;;;;;;;;;;;;13.30;100.00;99486.69;5587300;31;35064;-71
2023/04/24 05:58:21;;;;;;;;;;;;;;;13.57;100.00;99484.78;5573789;31;34579;-71
2023/04/24 06:01:25;;;;;;;;;;;;;;;13.61;100.00;99485.97;5587560;31;34548;-71
2023/04/24 06:04:28;;;;;;;;;;;;;;;13.73;100.00;99481.66;5587439;31;34437;-72
2023/04/24 06:07:33;;;;;;;;;;;;;;;13.67;100.00;99481.66;5587473;31;35049;-71
2023/04/24 06:10:37;;;;;;;;;;;;;;;14.06;100.00;99478.03;5587303;31;35041;-71
2023/04/24 06:13:40;;;;;;;;;;;;;;;14.21;100.00;99476.75;5587717;31;35240;-72
2023/04/24 06:16:48;;;;;;;;;;;;;;;14.18;100.00;99490.53;5587311;31;35049;-70
2023/04/24 06:19:52;;;;;;;;;;;;;;;14.63;100.00;99485.97;5587183;31;35109;-72
2023/04/24 06:22:56;;;;;;;;;;;;;;;14.87;100.00;99497.69;5585838;31;34292;-71
2023/04/24 06:25:59;;;;;;;;;;;;;;;15.00;100.00;99494.94;5586589;31;34526;-71
2023/04/24 06:29:01;;;;;;;;;;;;;;;15.07;100.00;99495.69;5587562;31;34394;-72
2023/04/24 06:32:04;;;;;;;;;;;;;;;15.25;100.00;99491.47;5587404;31;35088;-71
2023/04/24 06:35:09;;;;;;;;;;;;;;;14.67;100.00;99491.69;5586983;31;34501;-72
2023/04/24 06:38:12;;;;;;;;;;;;;;;14.69;100.00;99490.44;5589341;31;35097;-73
2023/04/24 06:41:15;;;;;;;;;;;;;;;14.47;100.00;99486.50;5587038;31;34931;-72
2023/04/24 06:44:19;;;;;;;;;;;;;;;13.96;100.00;99485.66;5586726;31;35375;-71
2023/04/24 06:47:21;;;;;;;;;;;;;;;13.56;100.00;99487.62;5587198;31;34367;-71
2023/04/24 06:50:24;;;;;;;;;;;;;;;13.58;100.00;99486.41;5584862;31;99882;-73
2023/04/24 06:53:27;;;;;;;;;;;;;;;13.87;100.00;99482.44;5588140;31;35006;-71
2023/04/24 06:56:30;;;;;;;;;;;;;;;13.98;100.00;99484.44;5587996;31;34458;-71
2023/04/24 06:59:33;;;;;;;;;;;;;;;14.38;100.00;99486.97;5587869;31;35066;-70
2023/04/24 07:02:35;;;;;;;;;;;;;;;14.28;100.00;99485.50;5587607;31;34482;-71
2023/04/24 07:05:38;;;;;;;;;;;;;;;14.12;100.00;99491.34;5574295;31;34485;-72
2023/04/24 07:08:41;;;;;;;;;;;;;;;14.13;100.00;99489.50;5587454;31;34600;-72
2023/04/24 07:11:45;;;;;;;;;;;;;;;14.17;100.00;99494.22;5587554;31;34481;-72
2023/04/24 07:14:47;;;;;;;;;;;;;;;14.48;100.00;99485.44;5574545;31;35058;-70
2023/04/24 07:17:50;;;;;;;;;;;;;;;14.49;100.00;99491.59;5587980;31;35139;-71
2023/04/24 07:20:53;;;;;;;;;;;;;;;14.65;100.00;99481.25;5587511;31;35175;-71
2023/04/24 07:23:56;;;;;;;;;;;;;;;14.57;100.00;99489.47;5587703;31;34420;-70
2023/04/24 07:26:59;;;;;;;;;;;;;;;14.86;100.00;99479.25;5587568;31;34460;-71
2023/04/24 07:30:03;;;;;;;;;;;;;;;14.68;100.00;99487.97;5573757;31;34955;-72
2023/04/24 07:33:06;;;;;;;;;;;;;;;14.13;100.00;99489.50;5587716;31;35015;-71
2023/04/24 07:36:15;;;;;;;;;;;;;;;14.73;100.00;99483.63;5590500;31;35147;-71
2023/04/24 07:39:18;;;;;;;;;;;;;;;14.51;100.00;99489.53;5590534;31;34477;-71
2023/04/24 07:42:20;;;;;;;;;;;;;;;14.54;100.00;99489.09;5576599;31;35034;-69
2023/04/24 07:45:23;;;;;;;;;;;;;;;14.88;100.00;99486.00;5590264;31;34349;-70
2023/04/24 07:48:26;;;;;;;;;;;;;;;14.74;100.00;99479.12;5576520;31;34520;-70
2023/04/24 07:51:28;;;;;;;;;;;;;;;14.94;100.00;99476.28;5590175;31;34964;-72
2023/04/24 07:54:31;;;;;;;;;;;;;;;14.93;100.00;99482.66;5590263;31;34460;-71
2023/04/24 07:57:34;;;;;;;;;;;;;;;14.60;100.00;99481.06;5590229;31;34478;-71
2023/04/24 08:00:36;;;;;;;;;;;;;;;14.91;100.00;99476.75;5589890;31;34447;-71
2023/04/24 08:03:39;;;;;;;;;;;;;;;15.60;100.00;99477.34;5590085;31;34436;-71
2023/04/24 08:06:42;;;;;;;;;;;;;;;15.93;100.00;99486.84;5590212;31;35189;-70
2023/04/24 08:09:45;;;;;;;;;;;;;;;16.13;100.00;99487.41;5590155;31;35017;-69
2023/04/24 08:12:47;;;;;;;;;;;;;;;16.55;100.00;99491.00;5589774;31;34521;-72
2023/04/24 08:15:50;;;;;;;;;;;;;;;17.00;100.00;99485.16;5576403;31;34498;-71
2023/04/24 08:18:52;;;;;;;;;;;;;;;17.90;92.15;99494.50;5590450;31;34478;-71
2023/04/24 08:21:55;;;;;;;;;;;;;;;17.32;96.85;99487.31;5590083;31;34490;-70
2023/04/24 08:24:59;;;;;;;;;;;;;;;19.19;88.79;99476.72;5590538;31;34401;-70
2023/04/24 08:28:03;;;;;;;;;;;;;;;19.57;79.06;99486.72;5576129;31;35108;-71
2023/04/24 08:31:06;;;;;;;;;;;;;;;17.12;93.57;99489.50;5563480;31;34513;-71
2023/04/24 08:34:09;;;;;;;;;;;;;;;16.73;97.53;99485.59;5590056;31;35063;-71
2023/04/24 08:37:11;;;;;;;;;;;;;;;17.12;99.19;99480.66;5589735;31;34664;-71
2023/04/24 08:40:15;;;;;;;;;;;;;;;16.22;100.00;99490.59;5589896;31;34531;-70
2023/04/24 08:43:18;;;;;;;;;;;;;;;15.60;100.00;99482.69;5589789;31;34434;-71
2023/04/24 08:46:21;;;;;;;;;;;;;;;15.88;100.00;99476.81;5588844;31;34332;-70
2023/04/24 08:49:25;;;;;;;;;;;;;;;16.61;100.00;99483.91;5576045;31;34522;-71
2023/04/24 08:52:29;;;;;;;;;;;;;;;16.76;94.38;99481.63;5589719;31;35134;-71
2023/04/24 08:55:32;;;;;;;;;;;;;;;18.01;86.16;99480.22;5589790;31;34418;-72
2023/04/24 08:58:36;;;;;;;;;;;;;;;18.13;82.59;99486.38;5575995;31;34476;-71
2023/04/24 09:01:39;;;;;;;;;;;;;;;17.23;86.48;99488.66;5589681;31;34355;-71
2023/04/24 09:04:42;;;;;;;;;;;;;;;18.19;82.09;99474.69;5590134;31;34495;-72
2023/04/24 09:07:49;;;;;;;;;;;;;;;18.48;79.63;99472.81;5575998;31;34720;-71
2023/04/24 09:10:51;;;;;;;;;;;;;;;17.41;85.13;99470.84;5589617;31;35101;-70
2023/04/24 09:13:54;;;;;;;;;;;;;;;18.24;84.10;99473.97;5589805;31;35178;-73
2023/04/24 09:16:57;;;;;;;;;;;;;;;18.44;78.05;99469.00;5589709;31;35043;-71
2023/04/24 09:20:00;;;;;;;;;;;;;;;19.44;71.80;99471.75;5575905;31;34055;-72
2023/04/24 09:23:02;;;;;;;;;;;;;;;19.50;69.82;99465.41;5589536;31;34330;-71
2023/04/24 09:26:05;;;;;;;;;;;;;;;19.80;68.16;99456.09;5575683;31;34529;-70
2023/04/24 09:29:13;;;;;;;;;;;;;;;20.10;64.05;99452.94;5589493;31;34558;-70
2023/04/24 09:32:21;;;;;;;;;;;;;;;21.03;58.38;99462.50;5589157;31;34560;-70
2023/04/24 09:35:25;;;;;;;;;;;;;;;20.44;59.27;99451.72;5589370;31;34554;-71
2023/04/24 09:38:35;;;;;;;;;;;;;;;20.76;54.23;99454.47;5589765;31;34450;-69
2023/04/24 09:41:47;;;;;;;;;;;;;;;20.54;56.22;99437.53;5589230;31;34426;-71
2023/04/24 09:44:52;;;;;;;;;;;;;;;19.35;58.56;99440.12;5589439;31;35212;-71
2023/04/24 09:48:09;;;;;;;;;;;;;;;20.28;57.56;99437.25;5589139;31;35069;-71
2023/04/24 09:51:15;;;;;;;;;;;;;;;19.91;57.58;99442.50;5589551;31;34426;-70
2023/04/24 09:54:20;;;;;;;;;;;;;;;19.84;58.92;99425.75;5576105;31;34547;-71
2023/04/24 09:57:23;;;;;;;;;;;;;;;21.70;53.93;99433.00;5589170;31;34987;-71
2023/04/24 10:00:27;;;;;;;;;;;;;;;22.32;52.40;99434.84;5589539;31;34678;-72
2023/04/24 10:03:32;;;;;;;;;;;;;;;20.97;53.81;99421.19;5589509;31;34453;-69
2023/04/24 10:06:34;;;;;;;;;;;;;;;20.43;58.19;99425.84;5589125;31;34540;-73
2023/04/24 10:09:37;;;;;;;;;;;;;;;20.40;56.80;99429.06;5588943;31;34564;-71
2023/04/24 10:12:40;;;;;;;;;;;;;;;19.33;59.05;99431.47;5588992;31;34497;-72
2023/04/24 10:15:43;;;;;;;;;;;;;;;20.25;57.66;99431.56;5589092;31;34329;-72
2023/04/24 10:18:46;;;;;;;;;;;;;;;20.59;55.21;99435.72;5589148;31;35021;-72
2023/04/24 10:21:49;;;;;;;;;;;;;;;20.24;54.04;99428.06;5588816;31;34515;-70
2023/04/24 10:24:52;;;;;;;;;;;;;;;20.31;54.62;99427.91;5588633;31;34664;-71
2023/04/24 10:27:59;;;;;;;;;;;;;;;20.45;56.05;99428.28;5588834;31;34495;-72
2023/04/24 10:31:02;;;;;;;;;;;;;;;20.55;56.30;99428.41;5588495;31;34448;-71
2023/04/24 10:34:06;;;;;;;;;;;;;;;20.83;54.67;99420.81;5588567;31;34487;-70
2023/04/24 10:37:09;;;;;;;;;;;;;;;20.87;55.00;99414.91;5588491;31;35001;-70
2023/04/24 10:40:15;;;;;;;;;;;;;;;21.18;54.19;99412.22;5574722;31;34348;-72
2023/04/24 10:43:18;;;;;;;;;;;;;;;21.29;54.84;99418.50;5588278;31;34511;-71
2023/04/24 10:46:21;;;;;;;;;;;;;;;21.04;53.84;99418.28;5588137;31;34477;-71
2023/04/24 10:49:30;;;;;;;;;;;;;;;20.36;54.84;99409.09;5587966;31;34983;-71
2023/04/24 10:52:46;;;;;;;;;;;;;;;19.88;56.90;99410.72;5587748;31;34417;-73
2023/04/24 10:55:50;;;;;;;;;;;;;;;20.17;57.10;99418.56;5587756;31;35161;-71
2023/04/24 10:58:54;;;;;;;;;;;;;;;20.57;57.27;99416.31;5588134;31;34545;-70
2023/04/24 11:01:56;;;;;;;;;;;;;;;19.49;61.16;99412.66;5574221;31;35042;-72
2023/04/24 11:05:02;;;;;;;;;;;;;;;20.00;58.28;99413.25;5587986;31;35036;-70
2023/04/24 11:08:13;;;;;;;;;;;;;;;19.35;60.93;99405.97;5588524;31;34407;-70
2023/04/24 11:11:17;;;;;;;;;;;;;;;19.16;64.17;99404.63;5590507;31;34521;-69
2023/04/24 11:14:21;;;;;;;;;;;;;;;19.34;64.04;99406.22;5590298;31;34601;-70
2023/04/24 11:17:31;;;;;;;;;;;;;;;19.14;65.00;99398.69;5590501;31;34426;-69
2023/04/24 11:20:34;;;;;;;;;;;;;;;19.03;67.13;99394.19;5590406;31;35128;-69
2023/04/24 11:23:37;;;;;;;;;;;;;;;18.93;66.26;99394.06;5590517;31;34492;-70
2023/04/24 11:26:40;;;;;;;;;;;;;;;19.43;62.68;99393.97;5590402;31;34513;-69
2023/04/24 11:29:43;;;;;;;;;;;;;;;20.41;59.43;99392.97;5590237;31;34431;-71
2023/04/24 11:32:52;;;;;;;;;;;;;;;20.79;58.08;99392.75;5590340;31;35201;-71
2023/04/24 11:35:55;;;;;;;;;;;;;;;20.99;57.10;99394.78;5590291;31;34479;-70
2023/04/24 11:38:59;;;;;;;;;;;;;;;20.03;59.22;99377.78;5590407;31;34461;-70
2023/04/24 11:42:03;;;;;;;;;;;;;;;20.86;56.82;99389.84;5590321;31;35202;-69
2023/04/24 11:45:18;;;;;;;;;;;;;;;20.97;56.54;99386.13;5589947;31;34363;-71
2023/04/24 11:48:21;;;;;;;;;;;;;;;19.99;58.86;99379.34;5576355;31;34427;-72
2023/04/24 11:51:26;;;;;;;;;;;;;;;19.91;61.30;99383.28;5590326;31;35504;-71
2023/04/24 11:54:46;;;;;;;;;;;;;;;19.87;64.48;99386.72;5590281;31;34442;-72
2023/04/24 11:57:49;;;;;;;;;;;;;;;21.22;57.09;99378.25;5590231;31;35201;-72
2023/04/24 12:00:59;;;;;;;;;;;;;;;21.68;55.32;99364.97;5590074;31;35084;-72
2023/04/24 12:04:01;;;;;;;;;;;;;;;22.62;52.85;99363.78;5576514;31;35045;-73
2023/04/24 12:07:08;;;;;;;;;;;;;;;21.28;55.15;99359.38;5590022;31;35068;-73
2023/04/24 12:10:11;;;;;;;;;;;;;;;20.55;58.86;99344.87;5590054;31;34578;-72
2023/04/24 12:13:13;;;;;;;;;;;;;;;20.07;60.81;99343.88;5590138;31;34766;-73
2023/04/24 12:16:18;;;;;;;;;;;;;;;19.89;62.43;99338.84;5590178;31;34540;-71
2023/04/24 12:19:21;;;;;;;;;;;;;;;19.44;64.53;99344.53;5589900;31;35222;-70
2023/04/24 12:22:24;;;;;;;;;;;;;;;18.75;69.34;99337.87;5589799;31;35078;-70
2023/04/24 12:25:31;;;;;;;;;;;;;;;18.16;74.25;99326.69;5589872;31;35060;-70
2023/04/24 12:28:36;;;;;;;;;;;;;;;18.40;75.79;99322.81;5589981;31;34500;-71
2023/04/24 12:31:39;;;;;;;;;;;;;;;18.54;72.35;99328.72;5590079;31;34578;-73
2023/04/24 12:34:43;;;;;;;;;;;;;;;18.16;75.59;99319.47;5590091;31;34316;-70
2023/04/24 12:37:45;;;;;;;;;;;;;;;18.21;72.92;99316.88;5589580;31;35147;-70
2023/04/24 12:41:01;;;;;;;;;;;;;;;17.98;76.77;99316.19;5589834;31;35073;-69
2023/04/24 12:44:03;;;;;;;;;;;;;;;17.65;81.10;99304.34;5589885;31;34577;-71
2023/04/24 12:47:06;;;;;;;;;;;;;;;17.73;84.99;99309.31;5589727;31;34509;-72
2023/04/24 12:50:09;;;;;;;;;;;;;;;17.39;83.26;99296.81;5589895;31;35109;-73
2023/04/24 12:53:12;;;;;;;;;;;;;;;17.43;86.88;99297.94;5589674;31;34461;-71
2023/04/24 12:56:14;;;;;;;;;;;;;;;17.52;86.26;99288.50;5589916;31;34351;-70
2023/04/24 12:59:22;;;;;;;;;;;;;;;17.52;84.84;99285.81;5590046;31;35129;-70
2023/04/24 13:02:26;;;;;;;;;;;;;;;17.65;86.69;99282.06;5590127;31;35071;-71
2023/04/24 13:05:29;;;;;;;;;;;;;;;17.39;91.83;99278.03;5589655;31;34493;-70
2023/04/24 13:08:32;;;;;;;;;;;;;;;17.16;94.90;99276.25;5589741;31;34383;-70
2023/04/24 13:11:35;;;;;;;;;;;;;;;17.17;93.95;99277.87;5589657;31;34403;-70
2023/04/24 13:14:37;;;;;;;;;;;;;;;17.38;97.00;99279.91;5589437;31;35194;-70
2023/04/24 13:17:40;;;;;;;;;;;;;;;17.43;95.92;99273.81;5589874;31;34432;-70
2023/04/24 13:20:43;;;;;;;;;;;;;;;17.60;94.30;99273.91;5575719;31;34414;-69
2023/04/24 13:23:46;;;;;;;;;;;;;;;17.58;91.96;99263.38;5575075;31;35257;-69
2023/04/24 13:26:48;;;;;;;;;;;;;;;17.78;95.17;99262.97;5589331;31;34376;-69
2023/04/24 13:29:51;;;;;;;;;;;;;;;17.82;92.70;99250.69;5589437;31;35067;-71
2023/04/24 13:32:54;;;;;;;;;;;;;;;17.54;95.47;99258.75;5575251;31;34986;-70
2023/04/24 13:35:57;;;;;;;;;;;;;;;17.39;98.77;99251.22;5589602;31;34314;-70
2023/04/24 13:38:59;;;;;;;;;;;;;;;17.32;100.00;99245.22;5589120;31;34662;-70
2023/04/24 13:42:02;;;;;;;;;;;;;;;17.32;100.00;99248.72;5589379;31;34612;-70
2023/04/24 13:45:06;;;;;;;;;;;;;;;17.03;100.00;99255.09;5589500;31;35170;-70
2023/04/24 13:48:26;;;;;;;;;;;;;;;16.86;100.00;99256.84;5589087;31;34475;-72
2023/04/24 13:51:28;;;;;;;;;;;;;;;16.50;100.00;99274.81;5588983;31;34552;-72
2023/04/24 13:54:31;;;;;;;;;;;;;;;16.05;100.00;99271.84;5589321;31;34443;-75
2023/04/24 13:57:34;;;;;;;;;;;;;;;15.09;100.00;99281.78;5589145;31;33578;-77
2023/04/24 14:00:36;;;;;;;;;;;;;;;14.46;100.00;99281.22;5588817;31;34548;-72
2023/04/24 14:03:39;;;;;;;;;;;;;;;14.23;100.00;99287.94;5588986;31;34507;-71
2023/04/24 14:06:42;;;;;;;;;;;;;;;13.79;100.00;99296.88;5588972;31;35033;-76
2023/04/24 14:09:44;;;;;;;;;;;;;;;13.26;100.00;99298.19;5588883;31;34452;-71
2023/04/24 14:12:47;;;;;;;;;;;;;;;13.22;100.00;99300.44;5575074;31;34422;-73
2023/04/24 14:15:52;;;;;;;;;;;;;;;13.06;100.00;99314.22;5588993;31;34343;-73
2023/04/24 14:18:54;;;;;;;;;;;;;;;12.89;100.00;99313.00;5588849;31;35014;-71
2023/04/24 14:21:58;;;;;;;;;;;;;;;12.88;100.00;99319.34;5588695;31;35099;-72
2023/04/24 14:25:00;;;;;;;;;;;;;;;12.84;100.00;99312.81;5588411;31;34465;-75
2023/04/24 14:28:03;;;;;;;;;;;;;;;12.88;100.00;99306.84;5574810;31;33118;-75
2023/04/24 14:31:06;;;;;;;;;;;;;;;13.16;100.00;99311.12;5573977;31;34549;-75
2023/04/24 14:34:09;;;;;;;;;;;;;;;13.34;100.00;99308.59;5587807;31;34580;-75
2023/04/24 14:37:11;;;;;;;;;;;;;;;13.53;100.00;99301.53;5588099;31;34452;-75
2023/04/24 14:40:14;;;;;;;;;;;;;;;13.83;100.00;99303.41;5574820;31;34396;-76
2023/04/24 14:43:22;;;;;;;;;;;;;;;14.15;100.00;99309.53;5588932;31;34349;-76
2023/04/24 14:46:25;;;;;;;;;;;;;;;14.31;100.00;99308.19;5590293;31;34576;-76
2023/04/24 14:49:27;;;;;;;;;;;;;;;14.24;100.00;99308.25;5589650;31;34585;-76
2023/04/24 14:52:30;;;;;;;;;;;;;;;14.33;100.00;99314.13;5590669;31;35106;-75
2023/04/24 14:55:35;;;;;;;;;;;;;;;14.28;100.00;99312.09;5590637;31;34637;-74
2023/04/24 14:58:38;;;;;;;;;;;;;;;14.32;100.00;99313.31;5590657;31;35048;-73
2023/04/24 15:01:41;;;;;;;;;;;;;;;14.36;100.00;99321.75;5590647;31;34350;-73
2023/04/24 15:04:45;;;;;;;;;;;;;;;14.38;100.00;99316.97;5590427;31;34955;-72
2023/04/24 15:07:47;;;;;;;;;;;;;;;14.07;100.00;99309.00;5591096;31;34607;-72
2023/04/24 15:10:54;;;;;;;;;;;;;;;13.96;100.00;99313.16;5590710;31;34392;-72
2023/04/24 15:13:57;;;;;;;;;;;;;;;14.01;100.00;99315.19;5576725;31;34310;-72
2023/04/24 15:16:59;;;;;;;;;;;;;;;14.06;100.00;99316.19;5590568;31;33947;-72
2023/04/24 15:20:03;;;;;;;;;;;;;;;14.23;100.00;99309.28;5576863;31;34435;-72
2023/04/24 15:23:08;;;;;;;;;;;;;;;14.34;100.00;99311.25;5590322;31;35140;-72
2023/04/24 15:26:10;;;;;;;;;;;;;;;14.16;100.00;99300.50;5590353;31;34433;-72
2023/04/24 15:29:13;;;;;;;;;;;;;;;14.22;100.00;99304.16;5590424;31;34971;-72
2023/04/24 15:32:15;;;;;;;;;;;;;;;14.09;100.00;99301.59;5590321;31;35071;-74
2023/04/24 15:35:18;;;;;;;;;;;;;;;14.10;100.00;99312.03;5590497;31;35096;-74
2023/04/24 15:38:21;;;;;;;;;;;;;;;14.33;100.00;99311.44;5590323;31;34476;-78
2023/04/24 15:41:24;;;;;;;;;;;;;;;14.58;100.00;99306.13;5590729;31;34447;-76
2023/04/24 15:44:27;;;;;;;;;;;;;;;14.93;100.00;99311.75;5590084;31;35037;-77
2023/04/24 15:47:30;;;;;;;;;;;;;;;14.92;100.00;99312.78;5590070;31;34383;-77